Time;durP1;ratioP1;P1;durP2;ratioP2;P2;SDS_P1;SDS_P2;PMS_P1;PMS_P2;Temp;Humidity;BMP_temperature;BMP_pressure;BME280_temperature;BME280_humidity;BME280_pressure;Samples;Min_cycle;Max_cycle;Signal;HPM_P1;HPM_P2
2022/06/12 00:01:37;;;;;;;8.18;2.88;;;;;;;20.18;51.60;102233.81;5105369;28;20039;-71
2022/06/12 00:04:05;;;;;;;10.25;3.00;;;;;;;20.14;51.53;102233.47;5099666;28;20048;-71
2022/06/12 00:06:34;;;;;;;6.93;2.72;;;;;;;20.12;51.70;102230.19;5106179;28;20437;-70
2022/06/12 00:09:02;;;;;;;7.22;2.83;;;;;;;20.10;51.73;102233.16;5098510;28;20064;-71
2022/06/12 00:11:30;;;;;;;8.43;3.38;;;;;;;20.07;51.86;102235.56;5107415;28;20044;-71
2022/06/12 00:14:01;;;;;;;7.78;2.80;;;;;;;20.06;51.61;102225.72;5099661;28;20040;-70
2022/06/12 00:16:31;;;;;;;6.55;2.70;;;;;;;20.02;51.69;102227.31;5105895;28;20044;-70
2022/06/12 00:19:00;;;;;;;8.48;2.88;;;;;;;20.00;51.80;102218.53;5099732;28;20056;-70
2022/06/12 00:21:31;;;;;;;9.02;3.30;;;;;;;19.99;51.88;102219.63;5106330;28;20086;-70
2022/06/12 00:24:04;;;;;;;10.75;3.33;;;;;;;19.96;51.83;102223.69;5105145;28;20135;-70
2022/06/12 00:26:34;;;;;;;10.40;3.58;;;;;;;19.95;51.91;102227.47;5110278;28;20500;-70
2022/06/12 00:29:07;;;;;;;8.50;2.75;;;;;;;19.94;51.86;102230.47;5103567;28;20067;-70
2022/06/12 00:31:38;;;;;;;8.18;3.25;;;;;;;19.89;52.19;102220.31;5101794;28;20048;-70
2022/06/12 00:34:07;;;;;;;12.07;3.42;;;;;;;19.88;52.19;102229.56;5101661;28;20138;-70
2022/06/12 00:36:35;;;;;;;12.40;3.20;;;;;;;19.86;52.15;102225.44;5107178;28;20055;-70
2022/06/12 00:39:05;;;;;;;9.32;3.03;;;;;;;19.80;52.14;102219.06;5101598;28;20449;-70
2022/06/12 00:41:33;;;;;;;10.65;3.35;;;;;;;19.82;52.26;102231.38;5101611;28;20386;-69
2022/06/12 00:44:01;;;;;;;7.95;3.60;;;;;;;19.81;52.19;102223.47;5101403;28;20150;-70
2022/06/12 00:46:40;;;;;;;7.55;3.45;;;;;;;19.78;52.01;102224.78;5103145;28;20047;-69
2022/06/12 00:49:10;;;;;;;9.13;3.22;;;;;;;19.77;52.26;102228.59;5102276;28;20043;-70
2022/06/12 00:51:39;;;;;;;5.93;2.92;;;;;;;19.76;52.15;102228.84;5102484;28;20052;-69
2022/06/12 00:54:10;;;;;;;8.98;2.75;;;;;;;19.74;52.47;102228.25;5103416;28;20048;-69
2022/06/12 00:56:47;;;;;;;11.98;3.42;;;;;;;19.73;52.37;102223.88;5102316;28;20055;-69
2022/06/12 00:59:20;;;;;;;9.80;3.22;;;;;;;19.68;52.36;102219.16;5098194;28;20082;-68
2022/06/12 01:01:50;;;;;;;14.02;4.18;;;;;;;19.67;52.54;102220.25;5106402;28;20079;-69
2022/06/12 01:07:09;;;;;;;7.20;3.03;;;;;;;19.64;52.51;102230.81;5102373;28;20142;-70
2022/06/12 01:09:42;;;;;;;11.18;3.78;;;;;;;19.62;52.52;102225.63;5096362;28;20174;-69
2022/06/12 01:12:14;;;;;;;11.90;3.42;;;;;;;19.61;52.49;102218.50;5102794;28;20052;-70
2022/06/12 01:14:47;;;;;;;7.50;2.83;;;;;;;19.59;52.45;102222.56;5095254;28;20045;-70
2022/06/12 01:17:15;;;;;;;11.07;3.33;;;;;;;19.57;52.57;102227.44;5100504;28;20044;-70
2022/06/12 01:19:50;;;;;;;9.77;3.45;;;;;;;19.55;52.79;102221.41;5102866;28;20048;-69
2022/06/12 01:22:54;;;;;;;8.55;3.25;;;;;;;19.53;52.65;102223.56;5103337;28;20589;-69
2022/06/12 01:26:02;;;;;;;8.65;3.28;;;;;;;19.49;52.81;102220.47;5102709;28;20132;-70
2022/06/12 01:28:46;;;;;;;9.00;3.92;;;;;;;19.47;52.59;102225.34;5100725;28;20048;-70
2022/06/12 01:31:35;;;;;;;10.20;3.80;;;;;;;19.45;52.56;102222.03;5096206;28;20048;-70
2022/06/12 01:34:15;;;;;;;6.45;3.40;;;;;;;19.42;52.52;102220.63;5090792;28;20488;-69
2022/06/12 01:36:49;;;;;;;7.93;3.30;;;;;;;19.40;52.75;102222.78;5103131;28;20083;-70
2022/06/12 01:39:24;;;;;;;6.38;2.88;;;;;;;19.39;52.78;102223.03;5099856;28;20063;-70
2022/06/12 01:41:58;;;;;;;8.50;3.40;;;;;;;19.36;52.70;102220.78;5096279;28;20052;-70
2022/06/12 01:44:39;;;;;;;8.05;3.35;;;;;;;19.34;52.75;102222.94;5103891;28;20044;-70
2022/06/12 01:47:18;;;;;;;8.70;3.20;;;;;;;19.16;52.94;102189.38;5103296;28;20048;-69
2022/06/12 01:50:05;;;;;;;9.88;3.72;;;;;;;19.29;52.79;102214.66;5099924;28;20684;-69
2022/06/12 01:52:40;;;;;;;8.30;3.30;;;;;;;19.26;52.91;102210.53;5102112;28;20075;-70
2022/06/12 01:55:14;;;;;;;11.70;4.40;;;;;;;19.24;52.66;102209.97;5102450;28;20492;-70
2022/06/12 01:57:46;;;;;;;8.38;3.45;;;;;;;19.22;52.92;102206.66;5096670;28;20103;-70
2022/06/12 02:00:20;;;;;;;7.90;3.22;;;;;;;19.19;52.84;102198.97;5101192;28;20448;-69
2022/06/12 02:02:54;;;;;;;7.90;2.75;;;;;;;19.18;52.81;102208.22;5108538;28;20473;-70
2022/06/12 02:05:28;;;;;;;7.57;3.38;;;;;;;19.16;52.91;102203.00;5089809;28;20104;-70
2022/06/12 02:08:01;;;;;;;8.45;3.17;;;;;;;19.13;52.88;102203.50;5101822;28;20079;-69
2022/06/12 02:10:34;;;;;;;8.77;2.97;;;;;;;19.11;52.90;102204.81;5100534;28;20048;-69
2022/06/12 02:13:15;;;;;;;6.28;3.15;;;;;;;19.09;52.89;102212.41;5097583;28;20040;-69
2022/06/12 02:15:49;;;;;;;8.55;3.22;;;;;;;19.08;52.81;102211.59;5102192;28;20139;-69
2022/06/12 02:18:27;;;;;;;9.63;3.33;;;;;;;19.05;52.83;102211.28;5099425;28;20047;-70
2022/06/12 02:21:01;;;;;;;7.80;3.42;;;;;;;19.04;52.71;102207.72;5099995;28;20079;-70
2022/06/12 02:23:35;;;;;;;6.47;2.50;;;;;;;19.01;53.00;102212.84;5102357;28;20454;-70
2022/06/12 02:26:05;;;;;;;6.80;2.92;;;;;;;18.99;52.79;102215.81;5104914;28;20036;-69
2022/06/12 02:28:39;;;;;;;7.63;2.75;;;;;;;18.98;52.72;102213.34;5094387;28;20059;-70
2022/06/12 02:31:15;;;;;;;6.28;2.72;;;;;;;18.91;52.97;102207.22;5095368;28;20282;-70
2022/06/12 02:33:50;;;;;;;5.32;2.38;;;;;;;18.93;52.77;102210.50;5098210;28;20101;-70
2022/06/12 02:36:23;;;;;;;9.57;2.90;;;;;;;18.92;52.91;102211.59;5101960;28;20146;-70
2022/06/12 02:38:57;;;;;;;9.20;3.00;;;;;;;18.89;52.96;102215.63;5101899;28;20098;-70
2022/06/12 02:41:30;;;;;;;7.40;3.08;;;;;;;18.88;52.90;102208.53;5094264;28;20052;-70
2022/06/12 02:44:04;;;;;;;8.98;2.92;;;;;;;18.87;52.75;102215.03;5102368;28;20227;-70
2022/06/12 02:46:37;;;;;;;6.50;3.13;;;;;;;18.84;53.08;102216.34;5101446;28;20105;-70
2022/06/12 02:49:09;;;;;;;6.78;3.05;;;;;;;18.83;52.89;102200.25;5100279;28;20112;-70
2022/06/12 02:51:47;;;;;;;9.40;3.17;;;;;;;18.82;52.98;102209.50;5101744;28;20048;-70
2022/06/12 02:54:25;;;;;;;7.80;2.92;;;;;;;18.78;53.03;102198.25;5088365;28;20044;-71
2022/06/12 02:57:05;;;;;;;8.93;3.30;;;;;;;18.78;53.02;102208.34;5097930;28;20048;-70
2022/06/12 02:59:43;;;;;;;7.70;2.95;;;;;;;18.76;52.85;102200.41;5101071;28;20102;-70
2022/06/12 03:02:19;;;;;;;9.27;3.30;;;;;;;18.74;52.99;102199.81;5099027;28;20055;-70
2022/06/12 03:04:54;;;;;;;8.02;2.20;;;;;;;18.72;52.97;102198.41;5098378;28;20119;-69
2022/06/12 03:07:22;;;;;;;6.18;2.53;;;;;;;18.70;53.15;102195.09;5098446;28;20592;-69
2022/06/12 03:09:50;;;;;;;6.25;2.92;;;;;;;18.68;53.27;102203.50;5096506;28;20056;-69
2022/06/12 03:12:18;;;;;;;7.85;2.42;;;;;;;18.65;53.23;102203.19;5104695;28;20116;-70
2022/06/12 03:14:46;;;;;;;7.57;2.85;;;;;;;18.64;53.10;102205.06;5102000;28;20047;-70
2022/06/12 03:17:15;;;;;;;4.22;2.47;;;;;;;18.64;53.14;102215.13;5098889;28;20044;-70
2022/06/12 03:19:47;;;;;;;4.95;2.55;;;;;;;18.63;53.12;102210.75;5101259;28;20052;-69
2022/06/12 03:22:24;;;;;;;6.60;2.90;;;;;;;18.54;53.12;102202.94;5088466;28;20044;-70
2022/06/12 03:24:53;;;;;;;;;;;;;;;18.59;53.06;102215.00;5098284;28;20044;-70
2022/06/12 03:27:53;;;;;;;7.38;2.97;;;;;;;18.57;53.03;102217.13;5096377;28;19920;-70
2022/06/12 03:30:31;;;;;;;4.55;2.60;;;;;;;18.55;53.12;102214.66;5093167;28;20109;-70
2022/06/12 03:33:08;;;;;;;7.72;2.80;;;;;;;18.51;53.15;102211.59;5103909;28;20063;-70
2022/06/12 03:35:45;;;;;;;6.88;3.20;;;;;;;18.50;53.10;102211.84;5101133;28;20097;-70
2022/06/12 03:38:20;;;;;;;;;;;;;;;18.48;53.12;102219.41;5098945;28;20105;-70
2022/06/12 03:40:55;;;;;;;6.45;2.75;;;;;;;18.46;53.17;102222.38;5097442;28;19970;-70
2022/06/12 03:43:31;;;;;;;7.15;2.70;;;;;;;18.44;53.12;102210.06;5088128;28;20053;-70
2022/06/12 03:46:04;;;;;;;;;;;;;;;18.42;53.16;102209.50;5098703;28;20140;-70
2022/06/12 03:48:40;;;;;;;5.22;2.35;;;;;;;18.39;53.08;102204.53;5093837;28;19919;-70
2022/06/12 03:51:15;;;;;;;7.25;2.92;;;;;;;18.36;53.21;102211.28;5098937;28;20048;-69
2022/06/12 03:53:53;;;;;;;10.05;2.85;;;;;;;18.34;53.14;102218.84;5100086;28;20052;-70
2022/06/12 03:59:16;;;;;;;7.35;2.80;;;;;;;18.30;53.27;102214.97;5099749;28;20047;-70
2022/06/12 04:01:46;;;;;;;7.80;2.55;;;;;;;18.29;53.26;102217.91;5099132;28;20348;-70
2022/06/12 04:04:18;;;;;;;9.88;2.75;;;;;;;18.29;53.23;102220.66;5101012;28;20048;-69
2022/06/12 04:06:47;;;;;;;6.85;3.00;;;;;;;18.26;53.27;102219.22;5092764;28;20071;-69
2022/06/12 04:09:19;;;;;;;7.78;2.40;;;;;;;18.24;53.31;102224.09;5096046;28;20083;-69
2022/06/12 04:11:53;;;;;;;4.97;2.35;;;;;;;18.22;53.22;102218.06;5098018;28;20048;-69
2022/06/12 04:14:23;;;;;;;5.32;2.35;;;;;;;18.18;53.20;102214.97;5089230;28;20097;-70
2022/06/12 04:16:55;;;;;;;5.53;2.58;;;;;;;18.19;53.08;102205.75;5105279;28;20063;-69
2022/06/12 04:19:26;;;;;;;10.90;3.15;;;;;;;18.16;53.30;102213.56;5103203;28;20464;-69
2022/06/12 04:22:02;;;;;;;6.30;2.60;;;;;;;18.16;53.16;102214.38;5096840;28;20044;-69
2022/06/12 04:24:38;;;;;;;7.32;2.58;;;;;;;18.15;53.15;102215.47;5103361;28;20436;-69
2022/06/12 04:27:13;;;;;;;9.52;2.50;;;;;;;18.12;53.15;102221.38;5106963;28;20040;-69
2022/06/12 04:29:54;;;;;;;7.17;3.10;;;;;;;18.13;53.05;102219.47;5103493;28;20489;-71
2022/06/12 04:32:23;;;;;;;5.72;2.40;;;;;;;18.11;53.13;102221.63;5098802;28;20051;-70
2022/06/12 04:34:53;;;;;;;6.70;2.40;;;;;;;18.08;53.05;102224.81;5100923;28;20056;-67
2022/06/12 04:37:24;;;;;;;6.70;2.75;;;;;;;18.10;53.05;102233.56;5099677;28;20066;-70
2022/06/12 04:39:53;;;;;;;7.85;2.42;;;;;;;18.09;53.09;102230.00;5097704;28;20048;-68
2022/06/12 04:42:24;;;;;;;5.45;2.63;;;;;;;18.06;52.97;102230.50;5102168;28;20040;-67
2022/06/12 04:44:53;;;;;;;6.82;2.70;;;;;;;18.06;52.83;102233.22;5097460;28;20117;-68
2022/06/12 04:47:24;;;;;;;5.18;2.28;;;;;;;18.05;52.73;102234.28;5099597;28;20349;-68
2022/06/12 04:49:53;;;;;;;7.47;2.38;;;;;;;18.04;53.01;102229.06;5100157;28;20074;-67
2022/06/12 04:52:24;;;;;;;5.90;2.10;;;;;;;18.04;52.92;102234.50;5100706;28;20048;-67
2022/06/12 04:54:52;;;;;;;6.50;2.10;;;;;;;17.99;52.67;102235.22;5095632;28;20058;-68
2022/06/12 04:57:25;;;;;;;8.18;2.40;;;;;;;18.05;52.73;102239.72;5103418;28;20060;-67
2022/06/12 04:59:54;;;;;;;10.52;3.42;;;;;;;18.03;52.71;102233.69;5102415;28;20083;-67
2022/06/12 05:02:23;;;;;;;7.47;2.72;;;;;;;18.02;52.69;102226.59;5097235;28;20036;-67
2022/06/12 05:04:51;;;;;;;6.38;2.38;;;;;;;18.01;52.92;102226.84;5117874;28;20040;-67
2022/06/12 05:07:20;;;;;;;7.15;2.42;;;;;;;18.05;52.80;102225.28;5101205;28;20076;-67
2022/06/12 05:09:48;;;;;;;5.10;2.10;;;;;;;18.06;52.69;102224.22;5101946;28;20098;-67
2022/06/12 05:12:16;;;;;;;6.55;2.63;;;;;;;18.08;52.69;102227.53;5098829;28;20052;-72
2022/06/12 05:14:44;;;;;;;11.15;2.55;;;;;;;18.08;52.78;102220.19;5103565;28;20066;-68
2022/06/12 05:17:20;;;;;;;8.07;2.45;;;;;;;18.08;52.59;102220.19;5102294;28;20044;-67
2022/06/12 05:19:49;;;;;;;5.72;2.58;;;;;;;18.08;52.73;102222.91;5094115;28;20048;-66
2022/06/12 05:22:21;;;;;;;8.20;1.95;;;;;;;18.09;52.63;102221.03;5102288;28;20424;-65
2022/06/12 05:24:50;;;;;;;5.57;2.00;;;;;;;18.09;52.56;102218.31;5102716;28;20044;-66
2022/06/12 05:27:22;;;;;;;8.07;2.45;;;;;;;18.09;52.60;102216.41;5093769;28;20107;-66
2022/06/12 05:29:50;;;;;;;6.63;2.33;;;;;;;18.11;52.72;102222.44;5105034;28;20051;-66
2022/06/12 05:32:21;;;;;;;6.45;2.60;;;;;;;18.13;52.77;102219.47;5104215;28;20400;-66
2022/06/12 05:34:50;;;;;;;9.73;2.65;;;;;;;18.14;52.86;102218.41;5089709;28;20144;-66
2022/06/12 05:37:18;;;;;;;8.55;2.47;;;;;;;18.16;52.63;102219.00;5103309;28;20062;-66
2022/06/12 05:39:46;;;;;;;3.92;1.90;;;;;;;18.19;52.66;102222.06;5099521;28;20144;-67
2022/06/12 05:42:16;;;;;;;6.25;2.20;;;;;;;18.20;52.70;102233.78;5093739;28;20056;-65
2022/06/12 05:44:43;;;;;;;8.82;2.30;;;;;;;18.16;52.70;102219.84;5092615;28;20048;-67
2022/06/12 05:47:11;;;;;;;7.30;2.35;;;;;;;18.23;52.67;102232.47;5102686;28;20076;-65
2022/06/12 05:49:39;;;;;;;8.32;2.72;;;;;;;18.24;52.54;102231.41;5103031;28;20056;-68
2022/06/12 05:52:07;;;;;;;4.15;1.95;;;;;;;18.21;52.69;102230.00;5098935;28;20036;-65
2022/06/12 05:54:35;;;;;;;9.50;2.97;;;;;;;18.27;52.79;102237.22;5099333;28;20075;-64
2022/06/12 05:57:03;;;;;;;10.15;2.00;;;;;;;18.29;52.74;102242.41;5102645;28;20044;-65
2022/06/12 05:59:33;;;;;;;11.82;3.60;;;;;;;18.30;52.89;102233.19;5091712;28;20505;-64
2022/06/12 06:02:00;;;;;;;6.97;2.22;;;;;;;18.31;53.01;102246.56;5100713;28;20079;-64
2022/06/12 06:04:29;;;;;;;7.50;2.80;;;;;;;18.34;52.78;102242.53;5103612;28;20638;-64
2022/06/12 06:06:58;;;;;;;11.32;2.30;;;;;;;18.34;53.20;102237.91;5101992;28;20244;-64
2022/06/12 06:09:27;;;;;;;6.60;2.15;;;;;;;18.37;53.25;102244.78;5102290;28;20534;-65
2022/06/12 06:11:55;;;;;;;11.85;3.13;;;;;;;18.38;53.05;102243.69;5095321;28;20068;-64
2022/06/12 06:14:23;;;;;;;8.98;3.03;;;;;;;18.40;53.37;102247.00;5097798;28;20079;-63
2022/06/12 06:16:52;;;;;;;12.35;3.72;;;;;;;18.42;53.38;102247.59;5092762;28;20086;-64
2022/06/12 06:19:20;;;;;;;11.85;3.67;;;;;;;18.44;53.54;102246.28;5100446;28;20063;-65
2022/06/12 06:21:48;;;;;;;8.80;3.13;;;;;;;18.47;53.55;102250.44;5105818;28;20114;-65
2022/06/12 06:24:16;;;;;;;6.93;2.58;;;;;;;18.48;53.73;102241.19;5105239;28;20157;-64
2022/06/12 06:26:45;;;;;;;11.15;3.35;;;;;;;18.51;53.62;102240.72;5101810;28;20044;-64
2022/06/12 06:29:17;;;;;;;9.40;2.90;;;;;;;18.52;53.73;102236.91;4905467;28;10000590;-65
2022/06/12 06:31:45;;;;;;;11.25;3.50;;;;;;;18.55;53.95;102241.88;5087204;28;20167;-65
2022/06/12 06:34:14;;;;;;;10.45;3.30;;;;;;;18.57;54.01;102249.81;5098445;28;20595;-64
2022/06/12 06:36:42;;;;;;;10.20;2.53;;;;;;;18.58;54.09;102252.28;5091382;28;20055;-66
2022/06/12 06:39:10;;;;;;;9.68;2.75;;;;;;;18.61;54.06;102251.03;5100011;28;20044;-64
2022/06/12 06:41:38;;;;;;;12.50;3.78;;;;;;;18.63;54.18;102249.72;5098139;28;20048;-65
2022/06/12 06:46:51;;;;;;;14.18;3.20;;;;;;;18.69;54.33;102253.38;5092171;28;20080;-65
2022/06/12 06:49:21;;;;;;;10.75;3.90;;;;;;;18.69;54.23;102254.19;5095044;28;20099;-65
2022/06/12 06:51:50;;;;;;;11.18;3.05;;;;;;;18.74;54.51;102256.19;5097677;28;20078;-65
2022/06/12 06:54:18;;;;;;;11.02;3.63;;;;;;;18.74;54.39;102250.75;5101803;28;20470;-65
2022/06/12 06:56:47;;;;;;;9.85;3.63;;;;;;;18.75;54.67;102245.06;5096552;28;20055;-67
2022/06/12 06:59:15;;;;;;;12.35;3.72;;;;;;;18.61;54.67;102230.06;5092395;28;20049;-66
2022/06/12 07:01:42;;;;;;;9.38;3.53;;;;;;;18.73;54.84;102257.25;5096924;28;20846;-64
2022/06/12 07:04:11;;;;;;;11.70;3.70;;;;;;;18.70;54.98;102257.75;5094449;28;20052;-67
2022/06/12 07:06:40;;;;;;;11.57;3.22;;;;;;;18.69;54.87;102258.81;5109389;28;20040;-70
2022/06/12 07:09:08;;;;;;;14.18;3.70;;;;;;;18.67;54.83;102261.78;5104548;28;20048;-70
2022/06/12 07:11:36;;;;;;;10.60;2.70;;;;;;;18.65;55.07;102261.19;5093804;28;20083;-65
2022/06/12 07:14:04;;;;;;;11.15;3.67;;;;;;;18.64;55.18;102261.44;5104135;28;20058;-66
2022/06/12 07:16:34;;;;;;;12.48;3.53;;;;;;;18.57;55.32;102257.97;5104117;28;20048;-73
2022/06/12 07:19:02;;;;;;;14.23;4.00;;;;;;;18.62;55.69;102261.66;5101300;28;20135;-69
2022/06/12 07:21:30;;;;;;;11.95;3.28;;;;;;;18.61;55.64;102260.00;5101147;28;20067;-72
2022/06/12 07:24:00;;;;;;;13.60;3.45;;;;;;;18.62;55.82;102255.41;5102180;28;20056;-71
2022/06/12 07:26:32;;;;;;;15.52;3.85;;;;;;;18.59;55.90;102248.50;5103050;28;20043;-68
2022/06/12 07:29:01;;;;;;;13.60;3.78;;;;;;;18.61;55.83;102251.03;5085263;28;20048;-70
2022/06/12 07:31:29;;;;;;;11.75;3.40;;;;;;;18.60;55.90;102261.06;5094155;28;20098;-70
2022/06/12 07:33:56;;;;;;;10.38;2.95;;;;;;;18.60;55.82;102260.22;5103982;28;20051;-69
2022/06/12 07:36:26;;;;;;;14.20;4.18;;;;;;;18.59;55.59;102259.41;5097565;28;20120;-69
2022/06/12 07:38:54;;;;;;;15.18;4.47;;;;;;;18.58;55.70;102263.19;5092873;28;20055;-69
2022/06/12 07:41:44;;;;;;;15.93;4.32;;;;;;;18.57;56.19;102264.25;5099368;28;20083;-68
2022/06/12 07:44:13;;;;;;;13.88;3.90;;;;;;;18.57;56.11;102269.69;5102604;28;20158;-68
2022/06/12 07:46:41;;;;;;;11.32;3.22;;;;;;;18.57;56.20;102263.44;5099615;28;20052;-69
2022/06/12 07:49:09;;;;;;;11.63;3.33;;;;;;;18.57;56.34;102261.53;5100679;28;20127;-69
2022/06/12 07:51:37;;;;;;;11.60;3.47;;;;;;;18.58;56.07;102257.75;5106887;28;20071;-69
2022/06/12 07:54:05;;;;;;;14.75;4.60;;;;;;;18.58;55.95;102268.63;5107194;28;20059;-69
2022/06/12 07:56:33;;;;;;;14.13;3.40;;;;;;;18.52;55.94;102253.25;5104394;28;20071;-69
2022/06/12 07:59:02;;;;;;;11.35;3.30;;;;;;;18.51;56.17;102251.59;5102707;28;20116;-67
2022/06/12 08:01:30;;;;;;;16.30;3.75;;;;;;;18.58;56.09;102257.75;5102882;28;20043;-68
2022/06/12 08:03:58;;;;;;;17.35;3.80;;;;;;;18.60;56.14;102261.06;4745237;28;9999985;-69
2022/06/12 08:06:27;;;;;;;13.13;3.13;;;;;;;18.60;56.15;102263.78;5106428;28;20040;-69
2022/06/12 08:08:56;;;;;;;15.70;4.43;;;;;;;18.63;56.23;102263.31;5104289;28;20048;-69
2022/06/12 08:11:30;;;;;;;12.45;3.53;;;;;;;18.75;56.34;102257.84;5109668;28;20055;-70
2022/06/12 08:13:57;;;;;;;14.57;3.10;;;;;;;18.70;56.55;102255.03;5103571;28;20048;-67
2022/06/12 08:16:27;;;;;;;12.32;3.80;;;;;;;18.70;56.18;102255.84;5103491;28;20525;-68
2022/06/12 08:18:55;;;;;;;12.60;3.22;;;;;;;18.70;56.36;102257.75;5105173;28;20048;-67
2022/06/12 08:21:23;;;;;;;14.57;3.45;;;;;;;18.70;56.19;102252.28;5105517;28;20561;-67
2022/06/12 08:23:54;;;;;;;10.98;4.20;;;;;;;18.66;56.33;102246.50;5094210;28;20107;-67
2022/06/12 08:26:25;;;;;;;12.73;3.65;;;;;;;18.66;56.16;102260.13;5102214;28;20512;-67
2022/06/12 08:28:56;;;;;;;11.80;3.83;;;;;;;18.70;56.18;102252.28;5103891;28;20078;-66
2022/06/12 08:31:29;;;;;;;13.93;3.42;;;;;;;18.71;56.29;102253.94;5103593;28;20068;-66
2022/06/12 08:34:02;;;;;;;10.02;2.58;;;;;;;18.73;56.48;102260.81;5097169;28;20079;-64
2022/06/12 08:36:32;;;;;;;12.00;3.30;;;;;;;18.75;56.42;102255.13;5101374;28;20084;-66
2022/06/12 08:39:00;;;;;;;13.07;2.88;;;;;;;18.77;56.58;102248.38;5101883;28;20036;-71
2022/06/12 08:41:34;;;;;;;12.48;2.97;;;;;;;18.79;56.42;102248.13;5100596;28;20083;-68
2022/06/12 08:44:08;;;;;;;11.35;2.75;;;;;;;18.80;56.42;102256.03;5099024;28;20090;-67
2022/06/12 08:46:45;;;;;;;9.52;2.83;;;;;;;18.80;56.57;102252.50;5095281;28;20159;-67
2022/06/12 08:49:24;;;;;;;10.13;2.67;;;;;;;18.81;56.36;102256.88;5104281;28;20045;-64
2022/06/12 08:51:58;;;;;;;9.50;2.97;;;;;;;18.73;56.42;102241.75;5100006;28;20083;-66
2022/06/12 08:54:36;;;;;;;15.93;3.05;;;;;;;18.83;56.92;102250.13;5100865;28;20032;-66
2022/06/12 08:57:09;;;;;;;9.65;3.38;;;;;;;18.85;56.53;102245.25;5103797;28;20044;-66
2022/06/12 08:59:43;;;;;;;12.23;3.70;;;;;;;18.88;56.39;102243.94;5097263;28;20082;-67
2022/06/12 09:02:19;;;;;;;9.25;3.15;;;;;;;18.91;57.21;102245.34;5106125;28;20099;-67
2022/06/12 09:04:47;;;;;;;12.07;3.90;;;;;;;18.94;56.97;102236.69;5100372;28;20183;-68
2022/06/12 09:07:19;;;;;;;16.67;3.55;;;;;;;18.95;56.63;102235.63;5105027;28;20060;-68
2022/06/12 09:09:52;;;;;;;10.55;2.72;;;;;;;18.95;56.59;102233.72;5097467;28;20043;-67
2022/06/12 09:12:25;;;;;;;10.48;2.90;;;;;;;18.93;56.63;102233.13;5104121;28;20410;-68
2022/06/12 09:15:06;;;;;;;9.77;3.47;;;;;;;18.97;56.51;102238.94;5102799;28;20063;-64
2022/06/12 09:17:44;;;;;;;11.15;3.65;;;;;;;18.93;56.21;102229.59;5099995;28;20074;-64
2022/06/12 09:20:20;;;;;;;14.50;3.75;;;;;;;18.95;55.97;102231.00;5099884;28;20109;-62
2022/06/12 09:23:00;;;;;;;6.25;2.15;;;;;;;18.95;56.05;102233.72;5087040;28;20043;-63
2022/06/12 09:25:34;;;;;;;10.45;3.22;;;;;;;18.89;56.36;102225.69;5096300;28;20086;-66
2022/06/12 09:28:11;;;;;;;14.23;3.92;;;;;;;19.03;58.03;102232.50;5103473;28;20055;-69
2022/06/12 09:30:44;;;;;;;11.13;3.13;;;;;;;19.07;57.84;102228.19;5095408;28;20104;-64
2022/06/12 09:33:24;;;;;;;10.05;2.60;;;;;;;19.11;57.68;102227.44;5103000;28;20044;-65
2022/06/12 09:36:10;;;;;;;13.05;3.38;;;;;;;19.17;57.60;102233.81;5101840;28;20084;-63
2022/06/12 09:38:58;;;;;;;11.07;2.83;;;;;;;19.22;57.45;102231.19;5097853;28;20082;-61
2022/06/12 09:41:33;;;;;;;10.35;3.47;;;;;;;19.07;57.28;102200.94;5096449;28;20059;-66
2022/06/12 09:44:11;;;;;;;12.95;3.72;;;;;;;19.25;57.04;102230.69;5096979;28;20058;-70
2022/06/12 09:46:48;;;;;;;9.05;2.40;;;;;;;19.27;56.12;102233.19;5097770;28;20043;-65
2022/06/12 09:49:29;;;;;;;12.63;3.10;;;;;;;19.27;56.17;102231.28;5091564;28;20047;-65
2022/06/12 09:52:13;;;;;;;11.45;3.85;;;;;;;19.29;56.34;102229.13;5098910;28;20112;-67
2022/06/12 09:54:53;;;;;;;10.20;3.85;;;;;;;19.34;57.51;102228.38;5104051;28;20079;-66
2022/06/12 09:57:38;;;;;;;11.23;3.08;;;;;;;19.35;56.31;102235.50;5102378;28;20048;-66
2022/06/12 10:00:09;;;;;;;8.40;2.83;;;;;;;19.38;55.74;102230.38;5100285;28;20052;-67
2022/06/12 10:02:43;;;;;;;8.73;2.58;;;;;;;19.36;54.66;102227.06;5101107;28;20173;-65
2022/06/12 10:05:16;;;;;;;10.90;4.10;;;;;;;19.34;55.44;102220.22;5097617;28;20082;-65
2022/06/12 10:07:49;;;;;;;15.88;4.80;;;;;;;19.28;55.77;102205.66;5102707;28;20059;-65
2022/06/12 10:10:23;;;;;;;20.88;5.80;;;;;;;19.48;56.46;102216.09;5095234;28;20040;-65
2022/06/12 10:12:59;;;;;;;17.20;4.65;;;;;;;19.53;56.23;102227.09;5097550;28;20036;-65
2022/06/12 10:15:31;;;;;;;12.35;3.92;;;;;;;19.56;56.05;102220.34;5102212;28;20048;-65
2022/06/12 10:18:06;;;;;;;9.55;3.08;;;;;;;19.59;56.15;102217.09;5096652;28;20080;-65
2022/06/12 10:20:42;;;;;;;11.73;3.10;;;;;;;19.66;56.31;102215.88;5102031;28;20067;-64
2022/06/12 10:23:10;;;;;;;10.43;3.17;;;;;;;19.72;56.23;102219.50;5109736;28;20047;-65
2022/06/12 10:25:41;;;;;;;14.15;3.70;;;;;;;19.79;56.17;102215.53;5094762;28;20048;-64
2022/06/12 10:28:23;;;;;;;14.75;3.53;;;;;;;19.79;55.57;102215.53;5101859;28;20051;-65
2022/06/12 10:31:06;;;;;;;10.27;2.88;;;;;;;19.82;54.92;102215.03;5097157;28;20048;-68
2022/06/12 10:33:47;;;;;;;10.52;2.95;;;;;;;19.81;54.45;102201.63;5103718;28;20055;-63
2022/06/12 10:36:24;;;;;;;11.00;3.17;;;;;;;19.81;54.62;102205.19;5096290;28;20493;-64
2022/06/12 10:39:03;;;;;;;13.35;3.40;;;;;;;19.87;55.22;102205.25;5097814;28;20051;-64
2022/06/12 10:41:32;;;;;;;15.38;3.38;;;;;;;19.91;55.18;102200.94;5096145;28;20083;-65
2022/06/12 10:44:00;;;;;;;15.15;4.95;;;;;;;19.99;55.48;102200.53;5115951;28;20083;-64
2022/06/12 10:46:30;;;;;;;10.80;3.38;;;;;;;20.04;55.42;102200.59;5098728;28;20083;-67
2022/06/12 10:49:03;;;;;;;14.48;3.47;;;;;;;20.11;55.25;102199.31;5101459;28;20044;-62
2022/06/12 10:51:36;;;;;;;11.48;2.97;;;;;;;20.12;54.40;102202.88;5096360;28;20070;-62
2022/06/12 10:54:13;;;;;;;11.23;2.60;;;;;;;20.17;54.37;102202.94;5104784;28;20372;-63
2022/06/12 10:56:46;;;;;;;15.43;3.65;;;;;;;20.19;54.16;102197.25;5101495;28;20097;-62
2022/06/12 10:59:34;;;;;;;9.60;2.70;;;;;;;20.26;54.38;102192.41;5096905;28;20064;-63
2022/06/12 11:02:43;;;;;;;14.70;3.20;;;;;;;20.29;54.34;102209.13;5101367;28;20078;-63
2022/06/12 11:05:42;;;;;;;12.20;2.40;;;;;;;20.36;54.47;102201.56;5097863;28;20044;-63
2022/06/12 11:08:28;;;;;;;9.50;3.38;;;;;;;20.38;53.88;102206.78;5099180;28;20048;-63
2022/06/12 11:11:04;;;;;;;10.15;2.70;;;;;;;20.42;54.04;102186.09;5093283;28;20048;-62
2022/06/12 11:13:55;;;;;;;6.88;2.03;;;;;;;20.51;54.03;102190.03;5095557;28;20043;-65
2022/06/12 11:16:33;;;;;;;8.85;2.50;;;;;;;20.53;54.17;102190.59;5098016;28;20044;-65
2022/06/12 11:19:14;;;;;;;9.90;2.40;;;;;;;20.54;53.62;102184.06;5097861;28;20036;-64
2022/06/12 11:21:54;;;;;;;10.25;3.10;;;;;;;20.59;53.75;102188.75;5099758;28;20070;-63
2022/06/12 11:24:29;;;;;;;6.13;2.53;;;;;;;20.62;53.48;102186.34;5095454;28;20062;-64
2022/06/12 11:27:23;;;;;;;9.82;3.17;;;;;;;20.72;53.13;102191.91;5089803;28;20052;-62
2022/06/12 11:30:15;;;;;;;9.93;3.15;;;;;;;20.72;52.56;102182.88;5097135;28;20040;-62
2022/06/12 11:32:51;;;;;;;9.45;3.60;;;;;;;20.72;52.60;102189.19;5094474;28;20186;-64
2022/06/12 11:35:37;;;;;;;7.57;2.25;;;;;;;20.75;52.70;102187.84;5100983;28;20081;-65
2022/06/12 11:38:22;;;;;;;11.35;3.13;;;;;;;20.75;52.94;102183.19;5098461;28;20108;-62
2022/06/12 11:40:58;;;;;;;12.18;2.67;;;;;;;20.76;52.64;102181.28;5094765;28;20459;-62
2022/06/12 11:43:33;;;;;;;12.65;2.80;;;;;;;20.78;52.31;102179.94;5092297;28;20071;-63
2022/06/12 11:46:15;;;;;;;8.45;3.05;;;;;;;20.80;52.44;102166.03;5097724;28;20074;-64
2022/06/12 11:49:02;;;;;;;7.25;2.45;;;;;;;20.99;52.57;102166.44;5096669;28;20062;-62
2022/06/12 11:51:42;;;;;;;9.27;3.40;;;;;;;21.02;52.12;102165.94;5092957;28;20078;-61
2022/06/12 11:54:27;;;;;;;9.48;3.13;;;;;;;21.09;51.52;102166.53;5099180;28;20044;-63
2022/06/12 11:57:01;;;;;;;8.15;2.47;;;;;;;21.16;52.22;102161.69;5095223;28;20055;-61
2022/06/12 11:59:41;;;;;;;9.35;2.90;;;;;;;21.19;51.80;102152.13;5099198;28;20052;-64